createdAt,value
2018-04-25T03:22:06.427Z,999.61
2018-04-25T03:23:06.496Z,999.61
2018-04-25T03:24:06.391Z,999.61
2018-04-25T03:25:06.356Z,999.57
2018-04-25T03:26:06.346Z,999.60
2018-04-25T03:27:16.225Z,999.60
2018-04-25T03:28:59.837Z,999.59
2018-04-25T03:29:59.797Z,999.62
2018-04-25T03:30:59.752Z,999.60
2018-04-25T03:31:59.763Z,999.58
2018-04-25T03:32:59.724Z,999.55
2018-04-25T03:33:59.765Z,999.57
2018-04-25T03:34:59.744Z,999.54
2018-04-25T03:35:59.766Z,999.61
2018-04-25T03:36:59.706Z,999.57
2018-04-25T03:37:59.707Z,999.54
2018-04-25T03:38:59.731Z,999.53
2018-04-25T03:39:59.710Z,999.49
2018-04-25T03:40:59.761Z,999.49
2018-04-25T03:41:59.695Z,999.47
2018-04-25T03:42:59.758Z,999.44
2018-04-25T03:43:59.733Z,999.43
2018-04-25T03:44:59.720Z,999.48
2018-04-25T03:45:59.707Z,999.47
2018-04-25T03:46:59.715Z,999.46
2018-04-25T03:47:59.737Z,999.40
2018-04-25T03:48:59.686Z,999.40
2018-04-25T03:49:59.708Z,999.42
2018-04-25T03:50:59.690Z,999.44
2018-04-25T03:51:59.682Z,999.41
2018-04-25T03:52:59.681Z,999.44
2018-04-25T03:53:59.688Z,999.50
2018-04-25T03:54:59.678Z,999.44
2018-04-25T03:55:59.719Z,999.43
2018-04-25T03:56:59.677Z,999.49
2018-04-25T03:57:59.726Z,999.48
2018-04-25T03:58:59.785Z,999.43
2018-04-25T03:59:59.680Z,999.43
2018-04-25T04:00:59.705Z,999.47
2018-04-25T04:01:59.707Z,999.41
2018-04-25T04:03:08.396Z,999.43
2018-04-25T04:04:54.795Z,999.42
